createdAt,value
2022-08-05T00:01:35.698Z,30.00
2022-08-05T00:04:08.198Z,30.20
2022-08-05T00:06:36.523Z,29.70
2022-08-05T00:09:05.053Z,30.00
2022-08-05T00:11:48.691Z,29.90
2022-08-05T00:14:26.500Z,30.30
2022-08-05T00:16:58.460Z,30.30
2022-08-05T00:19:33.845Z,30.30
2022-08-05T00:22:12.262Z,30.30
2022-08-05T00:24:42.260Z,30.00
2022-08-05T00:27:14.065Z,30.20
2022-08-05T00:29:44.975Z,30.10
2022-08-05T00:32:15.465Z,30.10
2022-08-05T00:35:05.065Z,29.80
2022-08-05T00:37:50.355Z,30.20
2022-08-05T00:40:27.550Z,30.10
2022-08-05T00:42:57.716Z,29.90
2022-08-05T00:45:37.886Z,30.00
2022-08-05T00:48:13.258Z,30.00
2022-08-05T00:50:45.018Z,30.30
2022-08-05T00:54:01.026Z,30.30
2022-08-05T00:56:04.309Z,30.00
2022-08-05T00:58:32.348Z,30.00
2022-08-05T01:01:00.612Z,30.10
2022-08-05T01:03:34.072Z,29.80
2022-08-05T01:06:05.329Z,30.20
2022-08-05T01:08:43.265Z,30.00
2022-08-05T01:11:22.543Z,30.10
2022-08-05T01:14:08.500Z,30.00
2022-08-05T01:16:48.432Z,30.10
2022-08-05T01:19:46.072Z,29.80
2022-08-05T01:22:28.100Z,29.50
2022-08-05T01:25:13.746Z,29.60
2022-08-05T01:27:57.629Z,29.70
2022-08-05T01:30:34.028Z,29.80
2022-08-05T01:33:08.245Z,29.70
2022-08-05T01:35:51.153Z,30.00
2022-08-05T01:38:27.137Z,29.80
2022-08-05T01:40:59.712Z,29.90
2022-08-05T01:43:29.632Z,30.10
2022-08-05T01:46:07.520Z,30.00
2022-08-05T01:48:49.770Z,30.20
2022-08-05T01:51:19.872Z,30.20
2022-08-05T01:53:58.334Z,30.30
2022-08-05T01:58:11.872Z,29.80
2022-08-05T01:59:24.516Z,29.70
2022-08-05T02:01:57.780Z,29.70
2022-08-05T02:04:28.893Z,29.20
2022-08-05T02:06:59.840Z,29.50
2022-08-05T02:09:31.649Z,29.50
2022-08-05T02:12:10.151Z,29.60
2022-08-05T02:14:47.995Z,29.60
2022-08-05T02:18:28.317Z,29.60
2022-08-05T02:20:20.847Z,29.30
2022-08-05T02:22:59.653Z,29.40
2022-08-05T02:25:33.309Z,29.60
2022-08-05T02:28:08.880Z,29.60
2022-08-05T02:30:51.780Z,29.80
2022-08-05T02:33:24.590Z,29.70
2022-08-05T02:36:06.062Z,29.90
2022-08-05T02:38:38.694Z,29.80
2022-08-05T02:41:16.967Z,29.40
2022-08-05T02:44:06.627Z,29.60
2022-08-05T02:46:53.366Z,29.70
2022-08-05T02:49:37.130Z,29.80
2022-08-05T02:52:09.039Z,29.80
2022-08-05T02:54:41.485Z,30.00
2022-08-05T02:58:20.022Z,30.10
2022-08-05T03:00:02.439Z,30.10
2022-08-05T03:02:37.620Z,30.00
2022-08-05T03:05:08.549Z,30.00
2022-08-05T03:08:00.191Z,29.70
2022-08-05T03:10:28.822Z,29.80
2022-08-05T03:15:24.592Z,30.00
2022-08-05T03:17:56.120Z,30.10
2022-08-05T03:20:26.342Z,29.80
2022-08-05T03:22:57.484Z,29.80
2022-08-05T03:25:34.094Z,29.70
2022-08-05T03:28:20.518Z,29.60
2022-08-05T03:30:50.873Z,29.80
2022-08-05T03:33:20.831Z,30.00
2022-08-05T03:35:51.625Z,30.00
2022-08-05T03:38:23.998Z,30.00
2022-08-05T03:41:08.532Z,30.10
2022-08-05T03:44:08.634Z,30.10
2022-08-05T03:46:29.725Z,30.10
2022-08-05T03:49:01.891Z,30.20
2022-08-05T03:52:36.558Z,30.20
2022-08-05T03:55:34.153Z,30.30
2022-08-05T03:57:29.243Z,30.20
2022-08-05T04:00:16.638Z,30.20
2022-08-05T04:02:57.545Z,30.30
2022-08-05T04:05:34.064Z,30.30
2022-08-05T04:08:05.698Z,30.30
2022-08-05T04:10:44.665Z,30.20
2022-08-05T04:13:14.918Z,30.20
2022-08-05T04:15:52.721Z,30.30
2022-08-05T04:18:32.117Z,30.40
2022-08-05T04:21:01.828Z,30.60
2022-08-05T04:24:04.695Z,30.50
2022-08-05T04:26:32.354Z,30.60
2022-08-05T04:29:00.599Z,30.70
2022-08-05T04:31:38.807Z,30.90
2022-08-05T04:34:31.247Z,31.20
2022-08-05T04:36:57.074Z,31.40
2022-08-05T04:39:27.614Z,31.70
2022-08-05T04:41:55.960Z,31.80
2022-08-05T04:44:29.987Z,32.00
2022-08-05T04:46:59.250Z,32.20
2022-08-05T04:49:39.027Z,32.30
2022-08-05T04:52:17.500Z,32.40
2022-08-05T04:54:47.069Z,32.40
2022-08-05T04:57:17.682Z,32.50
2022-08-05T04:59:47.957Z,32.70
2022-08-05T05:02:37.402Z,33.00
2022-08-05T05:05:26.032Z,33.20
2022-08-05T05:07:56.406Z,33.40
2022-08-05T05:10:29.663Z,33.70
2022-08-05T05:12:58.408Z,34.00
2022-08-05T05:15:56.914Z,34.20
2022-08-05T05:18:28.487Z,34.50
2022-08-05T05:21:01.364Z,34.90
2022-08-05T05:24:02.064Z,35.20
2022-08-05T05:26:18.834Z,35.40
2022-08-05T05:28:46.769Z,35.70
2022-08-05T05:31:14.784Z,35.80
2022-08-05T05:34:01.580Z,36.00
2022-08-05T05:36:31.273Z,36.10
2022-08-05T05:39:03.825Z,36.10
2022-08-05T05:41:40.514Z,36.10
2022-08-05T05:44:35.777Z,36.10
2022-08-05T05:47:02.272Z,36.10
2022-08-05T05:49:33.457Z,35.90
2022-08-05T05:52:05.855Z,35.90
2022-08-05T05:54:51.086Z,36.00
2022-08-05T05:57:20.384Z,35.90
2022-08-05T05:59:49.153Z,35.90
2022-08-05T06:02:32.712Z,36.00
2022-08-05T06:05:10.475Z,36.00
2022-08-05T06:08:01.182Z,36.00
2022-08-05T06:10:37.340Z,36.00
2022-08-05T06:13:17.293Z,35.90
2022-08-05T06:16:29.864Z,36.10
2022-08-05T06:18:33.690Z,36.00
2022-08-05T06:21:07.885Z,36.00
2022-08-05T06:23:44.865Z,36.00
2022-08-05T06:26:21.263Z,36.10
2022-08-05T06:28:49.792Z,36.00
2022-08-05T06:31:22.016Z,36.10
2022-08-05T06:34:07.432Z,36.20
2022-08-05T06:36:37.353Z,36.10
2022-08-05T06:39:28.190Z,36.30
2022-08-05T06:41:59.010Z,36.30
2022-08-05T06:44:27.465Z,36.20
2022-08-05T06:46:55.570Z,36.40
2022-08-05T06:50:01.354Z,36.60
2022-08-05T06:52:36.609Z,36.70
2022-08-05T06:55:00.663Z,36.80
2022-08-05T06:58:03.547Z,36.80
2022-08-05T07:00:22.463Z,37.00
2022-08-05T07:02:54.284Z,37.00
2022-08-05T07:05:37.260Z,37.00
2022-08-05T07:08:10.646Z,37.00
2022-08-05T07:10:39.231Z,36.90
2022-08-05T07:13:59.269Z,36.90
2022-08-05T07:17:57.076Z,36.90
2022-08-05T07:22:29.120Z,37.20
2022-08-05T07:24:59.429Z,37.30
2022-08-05T07:27:56.575Z,37.50
2022-08-05T07:30:24.007Z,37.40
2022-08-05T07:32:58.583Z,37.60
2022-08-05T07:36:03.192Z,37.20
2022-08-05T07:38:32.401Z,37.50
2022-08-05T07:42:09.286Z,37.40
2022-08-05T07:43:52.651Z,37.60
2022-08-05T07:46:26.570Z,37.70
2022-08-05T07:49:02.569Z,37.80
2022-08-05T07:51:52.883Z,37.70
2022-08-05T07:54:31.064Z,37.80
2022-08-05T07:57:50.564Z,38.00
2022-08-05T07:59:49.851Z,38.00
2022-08-05T08:02:26.645Z,38.00
2022-08-05T08:04:59.571Z,38.00
2022-08-05T08:07:39.713Z,37.70
2022-08-05T08:10:20.445Z,38.10
2022-08-05T08:12:49.707Z,38.10
2022-08-05T08:15:18.303Z,38.40
2022-08-05T08:18:14.309Z,38.40
2022-08-05T08:21:03.201Z,38.30
2022-08-05T08:24:02.356Z,38.60
2022-08-05T08:26:26.962Z,38.70
2022-08-05T08:29:09.739Z,38.90
2022-08-05T08:31:48.346Z,39.00
2022-08-05T08:34:18.723Z,39.10
2022-08-05T08:37:03.144Z,38.80
2022-08-05T08:39:37.695Z,39.10
2022-08-05T08:42:22.467Z,39.30
2022-08-05T08:45:19.143Z,39.50
2022-08-05T08:48:10.497Z,39.40
2022-08-05T08:51:03.599Z,39.50
2022-08-05T08:53:30.217Z,39.30
2022-08-05T08:56:04.014Z,39.50
2022-08-05T08:58:37.547Z,39.70
2022-08-05T09:01:15.798Z,39.70
2022-08-05T09:03:47.494Z,39.70
2022-08-05T09:06:21.372Z,39.70
2022-08-05T09:08:52.375Z,39.80
2022-08-05T09:11:50.686Z,40.00
2022-08-05T09:14:54.786Z,40.10
2022-08-05T09:16:56.977Z,40.00
2022-08-05T09:19:27.936Z,39.70
2022-08-05T09:22:23.073Z,39.80
2022-08-05T09:25:00.345Z,39.90
2022-08-05T09:28:04.890Z,40.10
2022-08-05T09:30:23.271Z,40.00
2022-08-05T09:33:01.895Z,40.20
2022-08-05T09:35:30.420Z,40.40
2022-08-05T09:38:17.760Z,40.30
2022-08-05T09:40:52.639Z,40.10
2022-08-05T09:43:40.526Z,40.30
2022-08-05T09:46:27.962Z,40.40
2022-08-05T09:49:08.190Z,39.90
2022-08-05T09:51:49.518Z,40.00
2022-08-05T09:54:31.904Z,40.10
2022-08-05T09:57:01.216Z,39.70
2022-08-05T09:59:34.852Z,40.10
2022-08-05T10:02:05.492Z,40.30
2022-08-05T10:04:40.866Z,40.50
2022-08-05T10:07:20.175Z,40.20
2022-08-05T10:10:15.222Z,40.30
2022-08-05T10:12:49.891Z,40.50
2022-08-05T10:15:24.301Z,40.60
2022-08-05T10:18:14.253Z,40.80
2022-08-05T10:20:48.368Z,40.50
2022-08-05T10:23:22.196Z,40.60
2022-08-05T10:26:14.329Z,40.70
2022-08-05T10:28:43.884Z,40.90
2022-08-05T10:32:54.429Z,40.90
2022-08-05T10:34:03.450Z,40.80
2022-08-05T10:36:32.034Z,40.30
2022-08-05T10:39:05.226Z,39.90
2022-08-05T10:41:50.714Z,40.20
2022-08-05T10:44:21.617Z,40.50
2022-08-05T10:46:54.350Z,40.70
2022-08-05T10:49:27.112Z,40.70
2022-08-05T10:52:10.408Z,40.50
2022-08-05T10:54:56.508Z,41.00
2022-08-05T10:57:33.727Z,41.10
2022-08-05T11:00:19.321Z,41.30
2022-08-05T11:03:25.509Z,41.40
2022-08-05T11:06:17.670Z,41.60
2022-08-05T11:09:32.073Z,41.60
2022-08-05T11:12:50.379Z,41.30
2022-08-05T11:15:21.749Z,41.30
2022-08-05T11:17:58.860Z,41.70
2022-08-05T11:20:41.497Z,41.90
2022-08-05T11:23:33.454Z,42.00
2022-08-05T11:26:28.172Z,42.00
2022-08-05T11:29:06.892Z,42.00
2022-08-05T11:31:57.972Z,42.10
2022-08-05T11:34:52.188Z,42.20
2022-08-05T11:38:30.467Z,42.10
2022-08-05T11:41:13.904Z,42.10
2022-08-05T11:44:06.462Z,41.90
2022-08-05T11:47:09.996Z,41.50
2022-08-05T11:49:28.719Z,41.30
2022-08-05T11:51:57.361Z,41.30
2022-08-05T11:54:33.537Z,41.00
2022-08-05T11:57:24.522Z,41.40
2022-08-05T11:59:54.727Z,41.00
2022-08-05T12:02:31.548Z,40.80
2022-08-05T12:05:08.049Z,40.80
2022-08-05T12:08:03.443Z,41.20
2022-08-05T12:10:45.315Z,41.30
2022-08-05T12:13:28.103Z,41.30
2022-08-05T12:16:15.060Z,41.60
2022-08-05T12:18:49.087Z,41.60
2022-08-05T12:21:23.773Z,41.40
2022-08-05T12:23:58.427Z,41.70
2022-08-05T12:26:32.477Z,41.60
2022-08-05T12:29:01.499Z,41.60
2022-08-05T12:31:46.160Z,41.70
2022-08-05T12:34:21.382Z,41.90
2022-08-05T12:36:53.426Z,41.60
2022-08-05T12:39:22.238Z,41.80
2022-08-05T12:41:58.054Z,42.00
2022-08-05T12:44:33.287Z,42.00
2022-08-05T12:47:05.583Z,42.30
2022-08-05T12:50:03.507Z,42.40
2022-08-05T12:52:39.246Z,42.70
2022-08-05T12:55:23.808Z,42.70
2022-08-05T12:58:51.004Z,42.90
2022-08-05T13:02:02.358Z,42.90
2022-08-05T13:03:41.725Z,42.40
2022-08-05T13:06:14.282Z,42.40
2022-08-05T13:08:50.818Z,42.20
2022-08-05T13:11:59.787Z,42.30
2022-08-05T13:14:19.876Z,42.00
2022-08-05T13:16:54.724Z,42.20
2022-08-05T13:19:52.511Z,42.40
2022-08-05T13:22:28.249Z,42.50
2022-08-05T13:25:00.709Z,42.50
2022-08-05T13:27:37.520Z,42.50
2022-08-05T13:30:33.834Z,42.60
2022-08-05T13:32:56.796Z,42.40
2022-08-05T13:35:47.317Z,42.30
2022-08-05T13:38:28.002Z,42.10
2022-08-05T13:41:00.008Z,42.10
2022-08-05T13:43:45.341Z,42.10
2022-08-05T13:46:35.715Z,42.00
2022-08-05T13:49:10.305Z,41.80
2022-08-05T13:51:46.176Z,41.70
2022-08-05T13:54:15.883Z,41.70
2022-08-05T13:56:51.699Z,41.50
2022-08-05T13:59:24.357Z,41.40
2022-08-05T14:01:57.651Z,41.60
2022-08-05T14:04:49.565Z,41.70
2022-08-05T14:07:55.550Z,41.80
2022-08-05T14:10:18.687Z,42.10
2022-08-05T14:12:49.108Z,42.20
2022-08-05T14:16:07.847Z,42.40
2022-08-05T14:18:14.969Z,42.40
2022-08-05T14:20:48.035Z,42.50
2022-08-05T14:23:24.648Z,42.50
2022-08-05T14:25:54.229Z,42.50
2022-08-05T14:28:27.033Z,42.50
2022-08-05T14:30:55.237Z,42.40
2022-08-05T14:33:23.871Z,42.40
2022-08-05T14:35:54.458Z,42.10
2022-08-05T14:38:32.789Z,42.10
2022-08-05T14:41:07.732Z,42.20
2022-08-05T14:44:00.052Z,42.50
2022-08-05T14:46:28.088Z,42.30
2022-08-05T14:48:59.496Z,42.40
2022-08-05T14:51:32.103Z,42.50
2022-08-05T14:54:26.463Z,42.40
2022-08-05T14:56:50.987Z,42.40
2022-08-05T14:59:24.518Z,42.40
2022-08-05T15:01:53.824Z,42.40
2022-08-05T15:04:22.846Z,42.50
2022-08-05T15:06:51.771Z,42.30
2022-08-05T15:09:51.531Z,42.50
2022-08-05T15:12:27.052Z,42.50
2022-08-05T15:14:56.121Z,42.50
2022-08-05T15:17:45.565Z,42.20
2022-08-05T15:20:18.398Z,42.20
2022-08-05T15:22:53.995Z,42.30
2022-08-05T15:25:51.251Z,42.20
2022-08-05T15:28:14.826Z,42.20
2022-08-05T15:30:46.739Z,42.20
2022-08-05T15:33:56.442Z,42.00
2022-08-05T15:36:17.185Z,42.20
2022-08-05T15:38:52.228Z,42.20
2022-08-05T15:41:57.758Z,41.80
2022-08-05T15:44:27.866Z,41.90
2022-08-05T15:46:56.066Z,42.00
2022-08-05T15:49:40.839Z,42.10
2022-08-05T15:52:16.721Z,42.10
2022-08-05T15:54:57.634Z,42.40
2022-08-05T15:57:34.552Z,42.20
2022-08-05T16:00:02.898Z,42.20
2022-08-05T16:02:32.975Z,42.20
2022-08-05T16:05:01.325Z,42.10
2022-08-05T16:07:29.780Z,42.20
2022-08-05T16:10:00.636Z,42.20
2022-08-05T16:12:30.008Z,42.40
2022-08-05T16:14:59.099Z,42.50
2022-08-05T16:17:27.066Z,42.40
2022-08-05T16:20:05.190Z,42.40
2022-08-05T16:22:41.063Z,42.30
2022-08-05T16:25:10.266Z,42.40
2022-08-05T16:27:59.677Z,42.20
2022-08-05T16:30:30.936Z,42.20
2022-08-05T16:33:00.958Z,42.00
2022-08-05T16:35:32.356Z,42.00
2022-08-05T16:38:24.421Z,41.90
2022-08-05T16:44:06.563Z,41.30
2022-08-05T16:46:34.572Z,40.70
2022-08-05T16:49:04.568Z,40.50
2022-08-05T16:51:42.898Z,40.50
2022-08-05T16:54:26.174Z,40.60
2022-08-05T16:56:58.341Z,40.50
2022-08-05T16:59:30.654Z,40.50
2022-08-05T17:01:59.518Z,40.30
2022-08-05T17:04:28.986Z,40.30
2022-08-05T17:07:00.675Z,40.10
2022-08-05T17:09:30.017Z,39.90
2022-08-05T17:11:59.977Z,39.90
2022-08-05T17:14:37.121Z,39.80
2022-08-05T17:17:14.299Z,39.80
2022-08-05T17:19:46.170Z,39.60
2022-08-05T17:22:24.931Z,39.40
2022-08-05T17:24:57.662Z,39.30
2022-08-05T17:27:33.965Z,39.20
2022-08-05T17:30:07.086Z,39.10
2022-08-05T17:32:42.687Z,39.00
2022-08-05T17:35:12.171Z,38.80
2022-08-05T17:37:45.570Z,38.60
2022-08-05T17:40:18.262Z,38.50
2022-08-05T17:42:52.921Z,38.20
2022-08-05T17:45:37.952Z,38.20
2022-08-05T17:48:07.839Z,38.10
2022-08-05T17:50:35.948Z,37.90
2022-08-05T17:53:05.599Z,37.70
2022-08-05T17:55:39.438Z,37.60
2022-08-05T17:58:12.385Z,37.40
2022-08-05T18:00:50.829Z,37.20
2022-08-05T18:06:11.733Z,37.00
2022-08-05T18:08:46.230Z,37.00
2022-08-05T18:11:24.550Z,36.80
2022-08-05T18:14:03.531Z,36.80
2022-08-05T18:16:33.892Z,36.70
2022-08-05T18:19:01.882Z,36.60
2022-08-05T18:22:07.466Z,36.50
2022-08-05T18:24:23.647Z,36.50
2022-08-05T18:26:54.913Z,36.40
2022-08-05T18:29:40.680Z,36.30
2022-08-05T18:32:12.849Z,36.30
2022-08-05T18:34:42.738Z,36.10
2022-08-05T18:37:12.708Z,36.40
2022-08-05T18:41:52.740Z,36.40
2022-08-05T18:42:47.102Z,36.40
2022-08-05T18:45:15.155Z,36.40
2022-08-05T18:47:46.429Z,36.20
2022-08-05T18:50:44.977Z,36.40
2022-08-05T18:53:22.212Z,36.00
2022-08-05T18:55:52.766Z,35.90
2022-08-05T18:58:24.341Z,35.80
2022-08-05T19:00:57.177Z,35.90
2022-08-05T19:03:34.430Z,35.90
2022-08-05T19:06:21.895Z,35.50
2022-08-05T19:08:50.336Z,35.40
2022-08-05T19:11:27.944Z,35.20
2022-08-05T19:14:00.984Z,35.20
2022-08-05T19:16:36.958Z,35.30
2022-08-05T19:19:20.951Z,35.00
2022-08-05T19:21:51.524Z,34.60
2022-08-05T19:24:34.863Z,34.40
2022-08-05T19:27:04.130Z,34.60
2022-08-05T19:29:35.844Z,34.70
2022-08-05T19:32:08.586Z,34.40
2022-08-05T19:34:42.009Z,34.00
2022-08-05T19:37:29.913Z,34.00
2022-08-05T19:40:08.205Z,33.80
2022-08-05T19:42:39.099Z,34.00
2022-08-05T19:45:08.536Z,33.60
2022-08-05T19:47:45.238Z,33.60
2022-08-05T19:50:15.633Z,33.40
2022-08-05T19:52:47.761Z,33.20
2022-08-05T19:56:12.400Z,33.40
2022-08-05T19:58:14.691Z,33.30
2022-08-05T20:00:52.529Z,33.50
2022-08-05T20:03:20.572Z,33.70
2022-08-05T20:05:51.613Z,33.70
2022-08-05T20:08:24.503Z,33.60
2022-08-05T20:10:53.168Z,33.50
2022-08-05T20:13:30.146Z,33.40
2022-08-05T20:16:09.973Z,33.40
2022-08-05T20:18:38.936Z,33.60
2022-08-05T20:21:08.940Z,33.70
2022-08-05T20:23:50.089Z,33.20
2022-08-05T20:26:20.732Z,32.90
2022-08-05T20:28:50.680Z,32.70
2022-08-05T20:31:21.609Z,32.70
2022-08-05T20:33:56.530Z,32.90
2022-08-05T20:36:26.695Z,33.10
2022-08-05T20:38:58.049Z,33.00
2022-08-05T20:41:44.526Z,33.00
2022-08-05T20:44:19.204Z,32.90
2022-08-05T20:47:01.458Z,32.90
2022-08-05T20:49:29.962Z,33.10
2022-08-05T20:52:07.924Z,32.90
2022-08-05T20:54:55.361Z,32.80
2022-08-05T20:57:24.793Z,32.80
2022-08-05T21:00:41.432Z,32.80
2022-08-05T21:03:06.208Z,32.60
2022-08-05T21:05:48.149Z,32.30
2022-08-05T21:08:26.490Z,32.50
2022-08-05T21:10:56.173Z,32.60
2022-08-05T21:13:48.262Z,32.50
2022-08-05T21:16:14.544Z,32.50
2022-08-05T21:18:46.128Z,32.30
2022-08-05T21:21:14.232Z,32.40
2022-08-05T21:23:47.554Z,32.50
2022-08-05T21:26:15.904Z,32.20
2022-08-05T21:28:50.585Z,32.10
2022-08-05T21:31:19.649Z,32.00
2022-08-05T21:33:49.366Z,31.80
2022-08-05T21:36:27.610Z,32.00
2022-08-05T21:38:59.178Z,31.90
2022-08-05T21:41:33.698Z,32.10
2022-08-05T21:44:04.169Z,32.50
2022-08-05T21:46:34.517Z,32.20
2022-08-05T21:49:07.431Z,32.20
2022-08-05T21:52:16.094Z,32.40
2022-08-05T21:54:27.809Z,32.50
2022-08-05T21:57:29.691Z,32.50
2022-08-05T22:00:05.993Z,32.60
2022-08-05T22:02:45.787Z,32.70
2022-08-05T22:05:13.977Z,32.60
2022-08-05T22:07:58.750Z,32.80
2022-08-05T22:10:29.310Z,32.90
2022-08-05T22:13:08.723Z,33.00
2022-08-05T22:16:01.498Z,32.90
2022-08-05T22:18:35.804Z,32.90
2022-08-05T22:21:04.746Z,32.90
2022-08-05T22:24:02.867Z,32.80
2022-08-05T22:26:55.475Z,32.90
2022-08-05T22:29:26.161Z,32.80
2022-08-05T22:31:55.231Z,32.80
2022-08-05T22:34:28.723Z,32.80
2022-08-05T22:36:58.397Z,32.80
2022-08-05T22:39:32.981Z,32.80
2022-08-05T22:42:10.198Z,33.10
2022-08-05T22:44:39.933Z,33.30
2022-08-05T22:47:08.265Z,33.40
2022-08-05T22:50:19.663Z,33.50
2022-08-05T22:52:32.543Z,33.60
2022-08-05T22:55:18.692Z,33.60
2022-08-05T22:57:49.628Z,33.70
2022-08-05T23:00:20.605Z,33.70
2022-08-05T23:02:49.755Z,33.60
2022-08-05T23:05:19.180Z,33.30
2022-08-05T23:07:50.824Z,33.30
2022-08-05T23:10:23.939Z,33.20
2022-08-05T23:12:55.767Z,32.80
2022-08-05T23:15:28.944Z,32.80
2022-08-05T23:18:00.433Z,32.80
2022-08-05T23:20:31.630Z,32.80
2022-08-05T23:23:00.443Z,32.80
2022-08-05T23:25:51.364Z,32.50
2022-08-05T23:28:21.269Z,32.20
2022-08-05T23:30:53.663Z,32.30
2022-08-05T23:34:02.758Z,32.50
2022-08-05T23:36:14.081Z,32.50
2022-08-05T23:38:45.244Z,32.30
2022-08-05T23:41:14.231Z,32.00
2022-08-05T23:44:05.297Z,31.90
2022-08-05T23:46:31.603Z,32.00
2022-08-05T23:49:02.132Z,32.20
2022-08-05T23:52:02.000Z,32.40
2022-08-05T23:54:36.389Z,32.40
2022-08-05T23:57:06.620Z,32.20
